createdAt,value
2022-12-27T00:02:21.826Z,0.30
2022-12-27T00:04:48.673Z,0.38
2022-12-27T00:07:15.372Z,0.37
2022-12-27T00:09:42.185Z,0.29
2022-12-27T00:12:09.211Z,0.13
2022-12-27T00:14:35.839Z,0.14
2022-12-27T00:17:03.228Z,0.17
2022-12-27T00:19:29.906Z,0.20
2022-12-27T00:21:56.659Z,0.24
2022-12-27T00:24:23.642Z,0.11
2022-12-27T00:26:50.324Z,0.10
2022-12-27T00:29:17.016Z,-0.03
2022-12-27T00:31:44.062Z,-0.04
2022-12-27T00:34:11.178Z,0.04
2022-12-27T00:36:37.880Z,0.01
2022-12-27T00:39:04.796Z,0.06
2022-12-27T00:41:32.780Z,0.02
2022-12-27T00:43:59.404Z,-0.13
2022-12-27T00:46:26.100Z,-0.07
2022-12-27T00:48:53.182Z,0.03
2022-12-27T00:51:24.965Z,0.01
2022-12-27T00:53:53.426Z,0.05
2022-12-27T00:56:28.399Z,-0.01
2022-12-27T00:58:56.825Z,-0.21
2022-12-27T01:01:25.204Z,-0.12
2022-12-27T01:03:52.616Z,-0.06
2022-12-27T01:06:22.757Z,-0.04
2022-12-27T01:08:49.519Z,-0.04
2022-12-27T01:11:17.615Z,-0.04
2022-12-27T01:13:45.566Z,0.02
2022-12-27T01:16:18.181Z,-0.07
2022-12-27T01:18:46.188Z,0.05
2022-12-27T01:21:15.631Z,0.03
2022-12-27T01:23:42.615Z,0.04
2022-12-27T01:26:14.189Z,-0.27
2022-12-27T01:28:41.039Z,-0.27
2022-12-27T01:31:11.613Z,-0.23
2022-12-27T01:33:39.224Z,-0.22
2022-12-27T01:36:13.361Z,-0.15
2022-12-27T01:38:42.943Z,-0.14
2022-12-27T01:41:43.327Z,-0.26
2022-12-27T01:44:38.231Z,-0.29
2022-12-27T01:47:10.558Z,-0.28
2022-12-27T01:49:38.374Z,-0.37
2022-12-27T01:52:06.137Z,-0.62
2022-12-27T01:54:34.120Z,-0.52
2022-12-27T01:57:01.515Z,-0.47
2022-12-27T01:59:28.340Z,-0.41
2022-12-27T02:01:55.755Z,-0.42
2022-12-27T02:04:26.006Z,-0.49
2022-12-27T02:06:52.996Z,-0.52
2022-12-27T02:09:33.009Z,-0.59
2022-12-27T02:12:02.084Z,-0.53
2022-12-27T02:14:33.156Z,-0.59
2022-12-27T02:17:02.979Z,-0.52
2022-12-27T02:19:41.639Z,-0.48
2022-12-27T02:22:17.344Z,-0.51
2022-12-27T02:25:00.934Z,-0.44
2022-12-27T02:27:56.907Z,-0.42
2022-12-27T02:30:24.243Z,-0.53
2022-12-27T02:33:00.923Z,-0.60
2022-12-27T02:35:36.789Z,-0.50
2022-12-27T02:38:13.659Z,-0.43
2022-12-27T02:41:01.388Z,-0.40
2022-12-27T02:43:47.585Z,-0.46
2022-12-27T02:46:47.683Z,-0.52
2022-12-27T02:49:45.191Z,-0.49
2022-12-27T02:53:02.398Z,-0.43
2022-12-27T02:55:37.875Z,-0.40
2022-12-27T02:58:43.342Z,-0.59
2022-12-27T03:01:46.677Z,-0.52
2022-12-27T03:04:22.902Z,-0.52
2022-12-27T03:07:04.750Z,-0.62
2022-12-27T03:09:53.318Z,-0.61
2022-12-27T03:12:45.347Z,-0.66
2022-12-27T03:15:53.552Z,-0.64
2022-12-27T03:18:28.288Z,-0.88
2022-12-27T03:21:18.024Z,-0.74
2022-12-27T03:24:06.478Z,-0.86
2022-12-27T03:26:36.257Z,-0.76
2022-12-27T03:29:22.945Z,-0.64
2022-12-27T03:32:17.646Z,-0.54
2022-12-27T03:35:00.602Z,-0.48
2022-12-27T03:37:52.371Z,-0.49
2022-12-27T03:40:27.832Z,-0.46
2022-12-27T03:43:12.942Z,-0.40
2022-12-27T03:46:04.237Z,-0.44
2022-12-27T03:48:38.199Z,-0.42
2022-12-27T03:51:06.698Z,-0.57
2022-12-27T03:53:40.153Z,-0.58
2022-12-27T03:56:11.483Z,-0.46
2022-12-27T03:58:38.108Z,-0.41
2022-12-27T04:01:04.987Z,-0.31
2022-12-27T04:03:31.710Z,-0.31
2022-12-27T04:05:58.427Z,-0.35
2022-12-27T04:08:43.970Z,-0.33
2022-12-27T04:11:29.511Z,-0.28
2022-12-27T04:14:14.696Z,-0.31
2022-12-27T04:16:59.884Z,-0.49
2022-12-27T04:19:45.069Z,-0.44
2022-12-27T04:22:30.343Z,-0.55
2022-12-27T04:25:15.955Z,-0.42
2022-12-27T04:28:02.113Z,-0.65
2022-12-27T04:30:47.592Z,-0.62
2022-12-27T04:33:32.848Z,-0.61
2022-12-27T04:36:05.856Z,-0.81
2022-12-27T04:38:32.959Z,-0.56
2022-12-27T04:41:18.202Z,-0.62
2022-12-27T04:44:03.471Z,-0.63
2022-12-27T04:46:49.036Z,-0.45
2022-12-27T04:49:41.218Z,-0.47
2022-12-27T04:52:38.656Z,-0.50
2022-12-27T04:55:26.278Z,-0.44
2022-12-27T04:57:53.779Z,-0.44
2022-12-27T05:00:41.612Z,-0.58
2022-12-27T05:03:15.457Z,-0.38
2022-12-27T05:05:43.865Z,-0.33
2022-12-27T05:08:31.334Z,-0.34
2022-12-27T05:11:16.520Z,-0.33
2022-12-27T05:14:01.630Z,-0.44
2022-12-27T05:16:32.771Z,-0.27
2022-12-27T05:18:59.510Z,-0.40
2022-12-27T05:21:26.641Z,-0.41
2022-12-27T05:24:12.449Z,-0.50
2022-12-27T05:26:39.609Z,-0.50
2022-12-27T05:29:07.870Z,-0.54
2022-12-27T05:31:34.676Z,-0.49
2022-12-27T05:34:01.695Z,-0.59
2022-12-27T05:36:28.432Z,-0.43
2022-12-27T05:38:55.090Z,-0.32
2022-12-27T05:41:21.998Z,-0.28
2022-12-27T05:43:48.707Z,-0.30
2022-12-27T05:46:18.250Z,-0.30
2022-12-27T05:48:45.611Z,-0.33
2022-12-27T05:51:20.807Z,-0.33
2022-12-27T05:53:48.394Z,-0.28
2022-12-27T05:56:17.878Z,-0.43
2022-12-27T05:58:44.639Z,-0.35
2022-12-27T06:01:14.350Z,0.03
2022-12-27T06:03:41.204Z,0.31
2022-12-27T06:06:08.488Z,0.24
2022-12-27T06:08:35.640Z,0.53
2022-12-27T06:11:07.877Z,0.80
2022-12-27T06:13:35.048Z,1.04
2022-12-27T06:16:04.036Z,1.17
2022-12-27T06:18:32.279Z,1.32
2022-12-27T06:21:03.174Z,1.35
2022-12-27T06:23:29.999Z,1.44
2022-12-27T06:25:56.685Z,1.24
2022-12-27T06:28:23.349Z,1.12
2022-12-27T06:30:50.880Z,1.16
2022-12-27T06:33:17.654Z,1.01
2022-12-27T06:35:44.353Z,1.04
2022-12-27T06:38:11.242Z,1.18
2022-12-27T06:40:37.878Z,1.22
2022-12-27T06:43:04.527Z,1.27
2022-12-27T06:45:32.406Z,1.37
2022-12-27T06:47:59.211Z,1.43
2022-12-27T06:50:25.906Z,1.75
2022-12-27T06:52:52.739Z,2.45
2022-12-27T06:55:19.397Z,2.95
2022-12-27T06:57:46.049Z,3.76
2022-12-27T07:00:16.550Z,4.79
2022-12-27T07:02:43.455Z,5.43
2022-12-27T07:05:10.320Z,4.97
2022-12-27T07:07:37.134Z,4.99
2022-12-27T07:10:04.077Z,5.77
2022-12-27T07:12:36.384Z,6.98
2022-12-27T07:15:05.964Z,7.83
2022-12-27T07:17:35.180Z,8.76
2022-12-27T07:20:06.169Z,9.42
2022-12-27T07:22:33.393Z,10.26
2022-12-27T07:25:00.186Z,9.82
2022-12-27T07:27:26.876Z,10.06
2022-12-27T07:29:53.648Z,10.81
2022-12-27T07:32:20.346Z,10.84
2022-12-27T07:34:47.038Z,11.59
2022-12-27T07:37:13.695Z,11.75
2022-12-27T07:39:40.360Z,11.18
2022-12-27T07:42:08.607Z,11.41
2022-12-27T07:44:35.605Z,11.84
2022-12-27T07:47:02.280Z,11.73
2022-12-27T07:49:29.055Z,12.83
2022-12-27T07:51:55.731Z,12.91
2022-12-27T07:54:22.560Z,12.66
2022-12-27T07:56:49.300Z,12.39
2022-12-27T07:59:16.005Z,13.67
2022-12-27T08:02:01.446Z,14.13
2022-12-27T08:04:28.239Z,14.62
2022-12-27T08:07:00.403Z,12.64
2022-12-27T08:09:32.134Z,12.77
2022-12-27T08:11:58.782Z,13.86
2022-12-27T08:14:25.400Z,14.40
2022-12-27T08:16:52.220Z,15.25
2022-12-27T08:19:18.906Z,15.71
2022-12-27T08:21:45.537Z,15.29
2022-12-27T08:24:12.251Z,14.63
2022-12-27T08:26:38.894Z,13.59
2022-12-27T08:29:05.497Z,14.12
2022-12-27T08:31:32.355Z,15.09
2022-12-27T08:33:59.078Z,15.37
2022-12-27T08:36:54.062Z,16.28
2022-12-27T08:39:12.739Z,14.68
2022-12-27T08:41:39.425Z,15.38
2022-12-27T08:44:06.357Z,15.70
2022-12-27T08:46:33.254Z,13.59
2022-12-27T08:49:00.141Z,14.99
2022-12-27T08:51:35.919Z,16.27
2022-12-27T08:54:07.236Z,16.56
2022-12-27T08:56:33.985Z,15.19
2022-12-27T08:59:00.710Z,16.61
2022-12-27T09:01:27.875Z,15.28
2022-12-27T09:03:54.690Z,14.93
2022-12-27T09:06:23.467Z,15.38
2022-12-27T09:08:51.777Z,16.61
2022-12-27T09:11:27.038Z,16.99
2022-12-27T09:13:56.127Z,17.55
2022-12-27T09:16:25.241Z,18.21
2022-12-27T09:18:54.628Z,17.14
2022-12-27T09:21:23.500Z,17.35
2022-12-27T09:23:50.712Z,17.56
2022-12-27T09:26:29.035Z,16.35
2022-12-27T09:28:57.957Z,14.78
2022-12-27T09:31:25.396Z,15.24
2022-12-27T09:33:53.319Z,14.68
2022-12-27T09:36:28.383Z,14.84
2022-12-27T09:38:58.051Z,15.79
2022-12-27T09:45:14.021Z,15.90
2022-12-27T09:48:01.355Z,16.43
2022-12-27T09:50:33.677Z,16.30
2022-12-27T09:53:12.736Z,16.26
2022-12-27T09:55:46.892Z,16.40
2022-12-27T09:58:43.214Z,16.73
2022-12-27T10:01:37.111Z,15.80
2022-12-27T10:04:05.185Z,15.98
2022-12-27T10:06:50.343Z,16.51
2022-12-27T10:09:45.107Z,16.08
2022-12-27T10:12:47.207Z,16.57
2022-12-27T10:15:50.089Z,16.69
2022-12-27T10:18:43.321Z,16.82
2022-12-27T10:21:24.702Z,17.59
2022-12-27T10:24:11.583Z,18.18
2022-12-27T10:26:39.009Z,18.38
2022-12-27T10:29:26.556Z,18.19
2022-12-27T10:31:53.547Z,18.70
2022-12-27T10:34:24.440Z,19.87
2022-12-27T10:36:53.078Z,19.58
2022-12-27T10:39:31.082Z,20.06
2022-12-27T10:41:57.723Z,20.68
2022-12-27T10:44:24.568Z,21.11
2022-12-27T10:46:55.376Z,21.78
2022-12-27T10:49:28.014Z,21.77
2022-12-27T10:51:58.567Z,22.00
2022-12-27T10:54:31.477Z,22.76
2022-12-27T10:57:17.425Z,22.81
2022-12-27T10:59:44.363Z,22.94
2022-12-27T11:02:18.791Z,22.53
2022-12-27T11:04:58.112Z,23.37
2022-12-27T11:07:30.484Z,22.90
2022-12-27T11:10:33.058Z,22.62
2022-12-27T11:13:03.553Z,22.61
2022-12-27T11:15:41.887Z,23.04
2022-12-27T11:18:17.314Z,22.99
2022-12-27T11:20:49.060Z,22.49
2022-12-27T11:23:18.800Z,22.96
2022-12-27T11:25:54.137Z,22.80
2022-12-27T11:28:39.850Z,22.97
2022-12-27T11:31:19.350Z,23.01
2022-12-27T11:33:52.291Z,22.93
2022-12-27T11:36:40.894Z,22.33
2022-12-27T11:39:08.645Z,22.09
2022-12-27T11:41:45.486Z,22.39
2022-12-27T11:44:18.931Z,22.28
2022-12-27T11:46:59.237Z,21.92
2022-12-27T11:49:51.715Z,22.78
2022-12-27T11:52:32.206Z,22.60
2022-12-27T11:55:18.891Z,22.94
2022-12-27T11:58:13.465Z,22.54
2022-12-27T12:01:33.778Z,22.57
2022-12-27T12:04:12.495Z,21.90
2022-12-27T12:07:08.676Z,22.36
2022-12-27T12:09:55.267Z,22.13
2022-12-27T12:12:21.866Z,21.79
2022-12-27T12:15:17.763Z,22.05
2022-12-27T12:18:12.497Z,21.84
2022-12-27T12:20:47.046Z,22.37
2022-12-27T12:23:41.976Z,22.05
2022-12-27T12:26:08.653Z,22.03
2022-12-27T12:29:00.601Z,21.78
2022-12-27T12:31:35.944Z,22.53
2022-12-27T12:34:15.012Z,22.10
2022-12-27T12:37:22.698Z,22.54
2022-12-27T12:40:01.806Z,22.39
2022-12-27T12:42:43.796Z,21.92
2022-12-27T12:45:29.160Z,21.57
2022-12-27T12:48:07.795Z,21.78
2022-12-27T12:50:53.194Z,20.90
2022-12-27T12:53:58.307Z,21.44
2022-12-27T12:56:52.570Z,21.13
2022-12-27T12:59:22.229Z,20.32
2022-12-27T13:02:25.360Z,19.85
2022-12-27T13:05:23.326Z,19.86
2022-12-27T13:07:56.344Z,19.78
2022-12-27T13:10:47.303Z,19.92
2022-12-27T13:13:23.039Z,19.58
2022-12-27T13:16:27.279Z,19.13
2022-12-27T13:19:02.885Z,19.11
2022-12-27T13:21:52.589Z,19.13
2022-12-27T13:24:39.512Z,19.02
2022-12-27T13:27:45.571Z,19.38
2022-12-27T13:30:24.282Z,18.89
2022-12-27T13:33:03.306Z,19.23
2022-12-27T13:35:57.061Z,18.54
2022-12-27T13:39:01.332Z,17.87
2022-12-27T13:41:46.420Z,16.94
2022-12-27T13:44:47.729Z,16.13
2022-12-27T13:47:20.887Z,16.36
2022-12-27T13:50:21.691Z,16.08
2022-12-27T13:53:09.592Z,16.53
2022-12-27T13:55:55.230Z,16.82
2022-12-27T13:58:25.086Z,16.42
2022-12-27T14:01:07.401Z,15.47
2022-12-27T14:04:01.303Z,15.19
2022-12-27T14:06:36.677Z,15.20
2022-12-27T14:09:23.557Z,14.64
2022-12-27T14:12:18.305Z,14.29
2022-12-27T14:14:46.860Z,14.00
2022-12-27T14:17:34.660Z,13.68
2022-12-27T14:20:20.924Z,13.46
2022-12-27T14:22:54.449Z,13.36
2022-12-27T14:25:57.113Z,13.05
2022-12-27T14:28:57.742Z,12.79
2022-12-27T14:31:54.370Z,12.38
2022-12-27T14:34:42.491Z,12.20
2022-12-27T14:37:27.923Z,11.90
2022-12-27T14:39:57.415Z,11.59
2022-12-27T14:42:33.316Z,11.62
2022-12-27T14:45:03.138Z,11.28
2022-12-27T14:47:55.999Z,11.24
2022-12-27T14:50:44.561Z,11.05
2022-12-27T14:53:43.451Z,10.93
2022-12-27T14:56:26.184Z,10.84
2022-12-27T14:59:16.292Z,10.76
2022-12-27T15:02:18.565Z,10.43
2022-12-27T15:05:10.709Z,10.19
2022-12-27T15:07:49.386Z,10.18
2022-12-27T15:10:34.860Z,9.94
2022-12-27T15:13:12.452Z,9.75
2022-12-27T15:16:14.873Z,9.50
2022-12-27T15:18:57.825Z,9.34
2022-12-27T15:21:44.796Z,9.31
2022-12-27T15:24:40.529Z,8.98
2022-12-27T15:27:28.844Z,8.64
2022-12-27T15:30:14.027Z,8.70
2022-12-27T15:32:59.794Z,8.53
2022-12-27T15:35:55.850Z,8.37
2022-12-27T15:38:53.021Z,8.20
2022-12-27T15:41:30.268Z,8.12
2022-12-27T15:44:05.941Z,8.16
2022-12-27T15:46:57.214Z,7.98
2022-12-27T15:49:44.707Z,7.89
2022-12-27T15:52:43.792Z,7.89
2022-12-27T15:55:31.034Z,7.81
2022-12-27T15:58:06.856Z,7.76
2022-12-27T16:00:34.714Z,7.66
2022-12-27T16:03:04.067Z,7.32
2022-12-27T16:05:45.264Z,7.39
2022-12-27T16:08:27.314Z,7.27
2022-12-27T16:10:55.780Z,7.20
2022-12-27T16:13:42.400Z,7.08
2022-12-27T16:16:32.120Z,7.05
2022-12-27T16:19:28.264Z,7.03
2022-12-27T16:21:55.140Z,6.97
2022-12-27T16:24:25.628Z,6.98
2022-12-27T16:26:58.505Z,7.01
2022-12-27T16:29:35.167Z,7.01
2022-12-27T16:32:17.318Z,6.81
2022-12-27T16:34:46.180Z,6.63
2022-12-27T16:37:30.183Z,6.53
2022-12-27T16:40:31.968Z,6.50
2022-12-27T16:42:59.053Z,6.50
2022-12-27T16:45:35.353Z,6.46
2022-12-27T16:48:18.480Z,6.46
2022-12-27T16:50:51.061Z,6.44
2022-12-27T16:53:42.507Z,6.38
2022-12-27T16:56:24.191Z,6.36
2022-12-27T16:58:51.492Z,6.31
2022-12-27T17:01:36.501Z,6.02
2022-12-27T17:04:03.848Z,5.97
2022-12-27T17:06:32.621Z,6.05
2022-12-27T17:09:10.296Z,5.97
2022-12-27T17:11:43.008Z,5.96
2022-12-27T17:14:16.654Z,5.82
2022-12-27T17:16:49.223Z,5.85
2022-12-27T17:19:27.139Z,5.81
2022-12-27T17:21:58.580Z,5.59
2022-12-27T17:24:26.263Z,5.59
2022-12-27T17:27:17.883Z,5.58
2022-12-27T17:30:06.973Z,5.52
2022-12-27T17:32:42.703Z,5.53
2022-12-27T17:35:46.604Z,5.47
2022-12-27T17:38:54.064Z,5.21
2022-12-27T17:41:58.116Z,5.32
2022-12-27T17:44:52.248Z,5.33
2022-12-27T17:47:40.488Z,5.35
2022-12-27T17:50:15.978Z,5.36
2022-12-27T17:53:01.354Z,5.41
2022-12-27T17:55:47.733Z,5.11
2022-12-27T17:58:16.938Z,5.30
2022-12-27T18:00:56.609Z,5.20
2022-12-27T18:03:26.473Z,5.14
2022-12-27T18:05:54.623Z,4.96
2022-12-27T18:08:29.834Z,4.83
2022-12-27T18:10:58.348Z,4.82
2022-12-27T18:13:28.955Z,4.76
2022-12-27T18:15:57.279Z,4.74
2022-12-27T18:18:28.459Z,4.67
2022-12-27T18:21:02.543Z,4.81
2022-12-27T18:23:29.760Z,4.74
2022-12-27T18:26:04.909Z,4.66
2022-12-27T18:28:35.048Z,4.66
2022-12-27T18:31:26.992Z,4.69
2022-12-27T18:34:14.791Z,4.72
2022-12-27T18:36:49.960Z,4.67
2022-12-27T18:39:33.530Z,4.58
2022-12-27T18:42:05.463Z,4.63
2022-12-27T18:44:55.517Z,4.50
2022-12-27T18:47:27.316Z,4.60
2022-12-27T18:50:02.897Z,4.52
2022-12-27T18:52:35.195Z,4.26
2022-12-27T18:55:23.737Z,4.40
2022-12-27T18:58:02.469Z,4.25
2022-12-27T19:00:30.691Z,4.31
2022-12-27T19:03:18.412Z,4.36
2022-12-27T19:06:02.611Z,4.30
2022-12-27T19:08:34.273Z,4.33
2022-12-27T19:11:01.729Z,4.26
2022-12-27T19:13:35.324Z,4.13
2022-12-27T19:16:02.350Z,3.91
2022-12-27T19:18:37.098Z,3.93
2022-12-27T19:21:06.528Z,3.97
2022-12-27T19:23:38.745Z,3.97
2022-12-27T19:26:19.684Z,3.69
2022-12-27T19:28:59.812Z,3.74
2022-12-27T19:31:27.419Z,3.77
2022-12-27T19:34:02.168Z,3.89
2022-12-27T19:36:43.879Z,3.80
2022-12-27T19:39:26.423Z,3.77
2022-12-27T19:41:53.979Z,3.79
2022-12-27T19:44:30.033Z,3.77
2022-12-27T19:46:56.753Z,3.77
2022-12-27T19:49:42.243Z,3.83
2022-12-27T19:52:17.913Z,3.81
2022-12-27T19:54:45.754Z,3.77
2022-12-27T19:57:12.939Z,3.79
2022-12-27T19:59:40.053Z,3.67
2022-12-27T20:02:06.958Z,3.65
2022-12-27T20:04:34.053Z,3.55
2022-12-27T20:07:03.187Z,3.55
2022-12-27T20:09:30.105Z,3.31
2022-12-27T20:11:57.162Z,3.37
2022-12-27T20:14:23.863Z,3.44
2022-12-27T20:16:50.673Z,3.44
2022-12-27T20:19:18.481Z,3.30
2022-12-27T20:21:45.356Z,3.22
2022-12-27T20:24:13.369Z,3.23
2022-12-27T20:26:41.422Z,3.09
2022-12-27T20:29:08.133Z,3.06
2022-12-27T20:31:40.454Z,3.06
2022-12-27T20:34:12.588Z,3.04
2022-12-27T20:36:39.299Z,3.04
2022-12-27T20:39:07.698Z,3.16
2022-12-27T20:41:34.753Z,3.07
2022-12-27T20:44:01.536Z,3.09
2022-12-27T20:46:28.823Z,3.02
2022-12-27T20:48:57.399Z,2.96
2022-12-27T20:51:27.693Z,2.87
2022-12-27T20:53:56.706Z,2.92
2022-12-27T20:56:24.262Z,3.03
2022-12-27T20:58:51.131Z,3.05
2022-12-27T21:01:23.764Z,2.93
2022-12-27T21:03:50.825Z,3.02
2022-12-27T21:06:23.010Z,3.03
2022-12-27T21:08:56.210Z,2.99
2022-12-27T21:11:31.558Z,3.01
2022-12-27T21:14:00.305Z,2.63
2022-12-27T21:16:29.077Z,2.64
2022-12-27T21:18:57.258Z,2.72
2022-12-27T21:21:28.298Z,2.69
2022-12-27T21:23:55.544Z,2.74
2022-12-27T21:26:25.381Z,2.62
2022-12-27T21:28:52.543Z,2.72
2022-12-27T21:31:23.166Z,2.80
2022-12-27T21:33:49.926Z,2.81
2022-12-27T21:36:22.352Z,2.85
2022-12-27T21:38:49.490Z,2.79
2022-12-27T21:41:19.399Z,2.83
2022-12-27T21:43:47.447Z,2.81
2022-12-27T21:46:17.255Z,2.80
2022-12-27T21:48:44.424Z,2.76
2022-12-27T21:51:17.569Z,2.81
2022-12-27T21:53:44.753Z,2.66
2022-12-27T21:56:13.453Z,2.67
2022-12-27T21:58:41.285Z,2.68
2022-12-27T22:01:13.552Z,2.58
2022-12-27T22:03:42.435Z,2.61
2022-12-27T22:06:16.249Z,2.61
2022-12-27T22:08:45.039Z,2.54
2022-12-27T22:11:12.417Z,2.60
2022-12-27T22:13:41.498Z,2.59
2022-12-27T22:16:13.259Z,2.58
2022-12-27T22:18:44.394Z,2.43
2022-12-27T22:21:13.563Z,2.43
2022-12-27T22:23:43.715Z,2.47
2022-12-27T22:26:24.929Z,2.42
2022-12-27T22:28:51.805Z,2.43
2022-12-27T22:31:27.269Z,2.42
2022-12-27T22:33:53.898Z,2.39
2022-12-27T22:36:23.056Z,2.43
2022-12-27T22:38:51.019Z,2.25
2022-12-27T22:41:20.750Z,2.38
2022-12-27T22:43:52.520Z,2.16
2022-12-27T22:46:19.668Z,2.06
2022-12-27T22:48:55.130Z,2.14
2022-12-27T22:51:27.299Z,2.19
2022-12-27T22:53:54.859Z,2.20
2022-12-27T22:56:24.410Z,2.20
2022-12-27T22:58:51.359Z,2.17
2022-12-27T23:01:19.540Z,2.17
2022-12-27T23:03:48.781Z,2.13
2022-12-27T23:06:16.149Z,2.11
2022-12-27T23:08:43.906Z,2.07
2022-12-27T23:11:19.335Z,2.01
2022-12-27T23:13:46.917Z,2.03
2022-12-27T23:16:13.771Z,1.98
2022-12-27T23:18:40.563Z,1.87
2022-12-27T23:21:20.491Z,1.92
2022-12-27T23:23:50.816Z,1.88
2022-12-27T23:26:19.555Z,1.94
2022-12-27T23:28:50.214Z,1.98
2022-12-27T23:31:18.816Z,1.88
2022-12-27T23:33:47.049Z,1.90
2022-12-27T23:36:14.254Z,1.82
2022-12-27T23:38:42.341Z,1.74
2022-12-27T23:41:14.064Z,1.65
2022-12-27T23:43:56.509Z,1.67
2022-12-27T23:46:34.624Z,1.70
2022-12-27T23:49:04.064Z,1.72
2022-12-27T23:51:32.425Z,1.86
2022-12-27T23:53:59.593Z,1.82
2022-12-27T23:56:28.784Z,1.86
2022-12-27T23:58:58.028Z,1.89
